sensor_id;sensor_type;location;lat;lon;timestamp;P1;durP1;ratioP1;P2;durP2;ratioP2
21611;SDS011;47005;52.292;13.452;2023-11-19T00:00:10;9.60;;;5.60;;
21611;SDS011;47005;52.292;13.452;2023-11-19T00:02:37;12.13;;;5.67;;
21611;SDS011;47005;52.292;13.452;2023-11-19T00:05:03;8.53;;;5.63;;
21611;SDS011;47005;52.292;13.452;2023-11-19T00:07:29;9.17;;;5.63;;
21611;SDS011;47005;52.292;13.452;2023-11-19T00:09:54;5.60;;;4.70;;
21611;SDS011;47005;52.292;13.452;2023-11-19T00:12:20;7.83;;;4.93;;
21611;SDS011;47005;52.292;13.452;2023-11-19T00:14:46;8.53;;;4.83;;
21611;SDS011;47005;52.292;13.452;2023-11-19T00:17:11;7.90;;;4.77;;
21611;SDS011;47005;52.292;13.452;2023-11-19T00:19:37;7.80;;;4.77;;
21611;SDS011;47005;52.292;13.452;2023-11-19T00:22:03;6.30;;;4.57;;
21611;SDS011;47005;52.292;13.452;2023-11-19T00:24:29;7.13;;;4.83;;
21611;SDS011;47005;52.292;13.452;2023-11-19T00:26:55;7.50;;;4.40;;
21611;SDS011;47005;52.292;13.452;2023-11-19T00:29:21;7.67;;;5.43;;
21611;SDS011;47005;52.292;13.452;2023-11-19T00:31:47;8.70;;;5.30;;
21611;SDS011;47005;52.292;13.452;2023-11-19T00:34:13;6.70;;;4.57;;
21611;SDS011;47005;52.292;13.452;2023-11-19T00:36:38;9.77;;;4.63;;
21611;SDS011;47005;52.292;13.452;2023-11-19T00:39:04;8.03;;;4.63;;
21611;SDS011;47005;52.292;13.452;2023-11-19T00:41:30;9.30;;;5.20;;
21611;SDS011;47005;52.292;13.452;2023-11-19T00:43:56;7.57;;;4.57;;
21611;SDS011;47005;52.292;13.452;2023-11-19T00:46:22;6.87;;;5.03;;
21611;SDS011;47005;52.292;13.452;2023-11-19T00:48:47;5.83;;;3.90;;
21611;SDS011;47005;52.292;13.452;2023-11-19T00:51:13;8.07;;;4.73;;
21611;SDS011;47005;52.292;13.452;2023-11-19T00:53:39;6.23;;;3.87;;
21611;SDS011;47005;52.292;13.452;2023-11-19T00:56:05;7.67;;;4.67;;
21611;SDS011;47005;52.292;13.452;2023-11-19T00:58:30;9.33;;;5.27;;
21611;SDS011;47005;52.292;13.452;2023-11-19T01:00:57;10.37;;;4.13;;
21611;SDS011;47005;52.292;13.452;2023-11-19T01:03:23;7.10;;;4.80;;
21611;SDS011;47005;52.292;13.452;2023-11-19T01:05:48;7.60;;;4.50;;
21611;SDS011;47005;52.292;13.452;2023-11-19T01:08:15;6.20;;;4.23;;
21611;SDS011;47005;52.292;13.452;2023-11-19T01:10:41;8.30;;;4.57;;
21611;SDS011;47005;52.292;13.452;2023-11-19T01:13:06;8.37;;;4.93;;
21611;SDS011;47005;52.292;13.452;2023-11-19T01:15:32;10.40;;;4.40;;
21611;SDS011;47005;52.292;13.452;2023-11-19T01:17:58;6.73;;;4.27;;
21611;SDS011;47005;52.292;13.452;2023-11-19T01:20:23;9.40;;;5.07;;
21611;SDS011;47005;52.292;13.452;2023-11-19T01:22:49;6.50;;;4.23;;
21611;SDS011;47005;52.292;13.452;2023-11-19T01:25:15;9.83;;;4.60;;
21611;SDS011;47005;52.292;13.452;2023-11-19T01:27:41;7.63;;;4.30;;
21611;SDS011;47005;52.292;13.452;2023-11-19T01:30:07;8.03;;;5.03;;
21611;SDS011;47005;52.292;13.452;2023-11-19T01:32:37;7.37;;;4.30;;
21611;SDS011;47005;52.292;13.452;2023-11-19T01:35:03;8.67;;;4.50;;
21611;SDS011;47005;52.292;13.452;2023-11-19T01:37:29;7.93;;;4.40;;
21611;SDS011;47005;52.292;13.452;2023-11-19T01:39:57;13.47;;;4.57;;
21611;SDS011;47005;52.292;13.452;2023-11-19T01:42:22;6.33;;;4.50;;
21611;SDS011;47005;52.292;13.452;2023-11-19T01:44:59;7.83;;;4.47;;
21611;SDS011;47005;52.292;13.452;2023-11-19T01:47:26;6.17;;;4.10;;
21611;SDS011;47005;52.292;13.452;2023-11-19T01:49:53;8.47;;;4.27;;
21611;SDS011;47005;52.292;13.452;2023-11-19T01:52:20;6.50;;;4.70;;
21611;SDS011;47005;52.292;13.452;2023-11-19T01:54:46;7.87;;;4.40;;
21611;SDS011;47005;52.292;13.452;2023-11-19T01:57:12;11.17;;;4.27;;
21611;SDS011;47005;52.292;13.452;2023-11-19T01:59:39;9.17;;;4.57;;
21611;SDS011;47005;52.292;13.452;2023-11-19T02:02:07;7.43;;;4.63;;
21611;SDS011;47005;52.292;13.452;2023-11-19T02:04:33;5.53;;;4.10;;
21611;SDS011;47005;52.292;13.452;2023-11-19T02:07:00;6.63;;;4.20;;
21611;SDS011;47005;52.292;13.452;2023-11-19T02:09:25;5.60;;;4.03;;
21611;SDS011;47005;52.292;13.452;2023-11-19T02:11:52;8.23;;;4.73;;
21611;SDS011;47005;52.292;13.452;2023-11-19T02:14:18;7.20;;;4.03;;
21611;SDS011;47005;52.292;13.452;2023-11-19T02:16:50;6.90;;;3.90;;
21611;SDS011;47005;52.292;13.452;2023-11-19T02:19:18;6.70;;;4.30;;
21611;SDS011;47005;52.292;13.452;2023-11-19T02:21:44;6.23;;;4.07;;
21611;SDS011;47005;52.292;13.452;2023-11-19T02:24:10;8.40;;;4.40;;
21611;SDS011;47005;52.292;13.452;2023-11-19T02:26:39;5.90;;;4.27;;
21611;SDS011;47005;52.292;13.452;2023-11-19T02:29:12;7.50;;;4.57;;
21611;SDS011;47005;52.292;13.452;2023-11-19T02:31:38;6.33;;;3.97;;
21611;SDS011;47005;52.292;13.452;2023-11-19T02:34:04;5.90;;;3.37;;
21611;SDS011;47005;52.292;13.452;2023-11-19T02:36:30;4.73;;;3.43;;
21611;SDS011;47005;52.292;13.452;2023-11-19T02:38:57;4.83;;;3.20;;
21611;SDS011;47005;52.292;13.452;2023-11-19T02:41:23;5.63;;;3.53;;
21611;SDS011;47005;52.292;13.452;2023-11-19T02:43:49;7.37;;;3.33;;
21611;SDS011;47005;52.292;13.452;2023-11-19T02:46:14;9.60;;;3.80;;
21611;SDS011;47005;52.292;13.452;2023-11-19T02:48:42;6.00;;;3.57;;
21611;SDS011;47005;52.292;13.452;2023-11-19T02:51:09;5.20;;;3.27;;
21611;SDS011;47005;52.292;13.452;2023-11-19T02:53:35;5.40;;;3.70;;
21611;SDS011;47005;52.292;13.452;2023-11-19T02:56:02;4.20;;;2.90;;
21611;SDS011;47005;52.292;13.452;2023-11-19T02:58:35;8.40;;;3.93;;
21611;SDS011;47005;52.292;13.452;2023-11-19T03:01:00;6.47;;;3.10;;
21611;SDS011;47005;52.292;13.452;2023-11-19T03:03:35;6.17;;;3.33;;
21611;SDS011;47005;52.292;13.452;2023-11-19T03:06:05;5.97;;;3.40;;
21611;SDS011;47005;52.292;13.452;2023-11-19T03:08:32;6.33;;;3.87;;
21611;SDS011;47005;52.292;13.452;2023-11-19T03:11:00;7.97;;;3.70;;
21611;SDS011;47005;52.292;13.452;2023-11-19T03:13:26;8.20;;;3.23;;
21611;SDS011;47005;52.292;13.452;2023-11-19T03:15:51;5.83;;;3.30;;
21611;SDS011;47005;52.292;13.452;2023-11-19T03:18:19;4.73;;;3.30;;
21611;SDS011;47005;52.292;13.452;2023-11-19T03:20:45;5.57;;;2.87;;
21611;SDS011;47005;52.292;13.452;2023-11-19T03:23:11;6.00;;;3.20;;
21611;SDS011;47005;52.292;13.452;2023-11-19T03:25:37;5.40;;;3.10;;
21611;SDS011;47005;52.292;13.452;2023-11-19T03:28:03;5.77;;;3.40;;
21611;SDS011;47005;52.292;13.452;2023-11-19T03:30:29;4.20;;;2.80;;
21611;SDS011;47005;52.292;13.452;2023-11-19T03:32:55;5.67;;;3.93;;
21611;SDS011;47005;52.292;13.452;2023-11-19T03:35:22;4.47;;;2.93;;
21611;SDS011;47005;52.292;13.452;2023-11-19T03:37:48;4.57;;;3.00;;
21611;SDS011;47005;52.292;13.452;2023-11-19T03:40:14;7.30;;;3.10;;
21611;SDS011;47005;52.292;13.452;2023-11-19T03:42:40;5.17;;;2.60;;
21611;SDS011;47005;52.292;13.452;2023-11-19T03:45:06;4.13;;;2.80;;
21611;SDS011;47005;52.292;13.452;2023-11-19T03:47:35;5.37;;;3.40;;
21611;SDS011;47005;52.292;13.452;2023-11-19T03:50:01;5.27;;;3.40;;
21611;SDS011;47005;52.292;13.452;2023-11-19T03:52:27;5.73;;;3.17;;
21611;SDS011;47005;52.292;13.452;2023-11-19T03:54:54;5.37;;;3.30;;
21611;SDS011;47005;52.292;13.452;2023-11-19T03:57:20;6.10;;;3.20;;
21611;SDS011;47005;52.292;13.452;2023-11-19T03:59:46;5.97;;;3.57;;
21611;SDS011;47005;52.292;13.452;2023-11-19T04:02:12;5.60;;;3.60;;
21611;SDS011;47005;52.292;13.452;2023-11-19T04:04:37;5.93;;;3.97;;
21611;SDS011;47005;52.292;13.452;2023-11-19T04:07:06;5.60;;;3.37;;
21611;SDS011;47005;52.292;13.452;2023-11-19T04:09:32;7.30;;;3.17;;
21611;SDS011;47005;52.292;13.452;2023-11-19T04:12:02;8.53;;;3.53;;
21611;SDS011;47005;52.292;13.452;2023-11-19T04:14:28;5.80;;;3.93;;
21611;SDS011;47005;52.292;13.452;2023-11-19T04:16:54;5.67;;;3.60;;
21611;SDS011;47005;52.292;13.452;2023-11-19T04:19:20;7.73;;;3.97;;
21611;SDS011;47005;52.292;13.452;2023-11-19T04:21:45;5.63;;;3.23;;
21611;SDS011;47005;52.292;13.452;2023-11-19T04:24:11;5.43;;;3.77;;
21611;SDS011;47005;52.292;13.452;2023-11-19T04:26:44;7.23;;;4.07;;
21611;SDS011;47005;52.292;13.452;2023-11-19T04:29:13;8.00;;;4.53;;
21611;SDS011;47005;52.292;13.452;2023-11-19T04:31:42;6.33;;;3.60;;
21611;SDS011;47005;52.292;13.452;2023-11-19T04:34:09;6.13;;;3.73;;
21611;SDS011;47005;52.292;13.452;2023-11-19T04:36:36;5.93;;;3.43;;
21611;SDS011;47005;52.292;13.452;2023-11-19T04:39:02;5.97;;;3.77;;
21611;SDS011;47005;52.292;13.452;2023-11-19T04:41:50;6.73;;;4.33;;
21611;SDS011;47005;52.292;13.452;2023-11-19T04:44:19;7.67;;;3.83;;
21611;SDS011;47005;52.292;13.452;2023-11-19T04:46:45;6.07;;;3.40;;
21611;SDS011;47005;52.292;13.452;2023-11-19T04:49:12;6.23;;;4.30;;
21611;SDS011;47005;52.292;13.452;2023-11-19T04:51:42;6.13;;;4.17;;
21611;SDS011;47005;52.292;13.452;2023-11-19T04:54:08;7.20;;;4.50;;
21611;SDS011;47005;52.292;13.452;2023-11-19T04:56:35;7.10;;;4.33;;
21611;SDS011;47005;52.292;13.452;2023-11-19T04:59:02;6.97;;;5.00;;
21611;SDS011;47005;52.292;13.452;2023-11-19T05:01:28;5.80;;;3.97;;
21611;SDS011;47005;52.292;13.452;2023-11-19T05:03:56;6.90;;;4.67;;
21611;SDS011;47005;52.292;13.452;2023-11-19T05:06:25;13.47;;;4.90;;
21611;SDS011;47005;52.292;13.452;2023-11-19T05:08:54;8.87;;;4.90;;
21611;SDS011;47005;52.292;13.452;2023-11-19T05:11:20;7.13;;;4.20;;
21611;SDS011;47005;52.292;13.452;2023-11-19T05:13:46;6.77;;;4.57;;
21611;SDS011;47005;52.292;13.452;2023-11-19T05:16:12;5.90;;;4.37;;
21611;SDS011;47005;52.292;13.452;2023-11-19T05:18:39;8.73;;;5.10;;
21611;SDS011;47005;52.292;13.452;2023-11-19T05:21:05;7.43;;;4.27;;
21611;SDS011;47005;52.292;13.452;2023-11-19T05:23:32;6.40;;;4.43;;
21611;SDS011;47005;52.292;13.452;2023-11-19T05:25:59;6.13;;;4.10;;
21611;SDS011;47005;52.292;13.452;2023-11-19T05:28:28;5.93;;;3.70;;
21611;SDS011;47005;52.292;13.452;2023-11-19T05:30:54;9.57;;;4.50;;
21611;SDS011;47005;52.292;13.452;2023-11-19T05:33:20;5.83;;;4.20;;
21611;SDS011;47005;52.292;13.452;2023-11-19T05:35:46;7.93;;;4.70;;
21611;SDS011;47005;52.292;13.452;2023-11-19T05:38:12;7.40;;;4.53;;
21611;SDS011;47005;52.292;13.452;2023-11-19T05:40:38;7.10;;;4.70;;
21611;SDS011;47005;52.292;13.452;2023-11-19T05:43:04;7.43;;;4.73;;
21611;SDS011;47005;52.292;13.452;2023-11-19T05:45:30;6.63;;;4.10;;
21611;SDS011;47005;52.292;13.452;2023-11-19T05:47:57;6.17;;;4.20;;
21611;SDS011;47005;52.292;13.452;2023-11-19T05:50:22;6.57;;;4.03;;
21611;SDS011;47005;52.292;13.452;2023-11-19T05:52:48;6.30;;;4.10;;
21611;SDS011;47005;52.292;13.452;2023-11-19T05:55:14;6.63;;;4.00;;
21611;SDS011;47005;52.292;13.452;2023-11-19T05:57:40;5.93;;;4.13;;
21611;SDS011;47005;52.292;13.452;2023-11-19T06:00:06;7.13;;;4.23;;
21611;SDS011;47005;52.292;13.452;2023-11-19T06:02:33;6.63;;;3.63;;
21611;SDS011;47005;52.292;13.452;2023-11-19T06:04:59;5.57;;;3.47;;
21611;SDS011;47005;52.292;13.452;2023-11-19T06:07:26;6.47;;;4.00;;
21611;SDS011;47005;52.292;13.452;2023-11-19T06:09:52;6.13;;;3.67;;
21611;SDS011;47005;52.292;13.452;2023-11-19T06:12:17;5.60;;;3.60;;
21611;SDS011;47005;52.292;13.452;2023-11-19T06:14:43;7.17;;;4.57;;
21611;SDS011;47005;52.292;13.452;2023-11-19T06:17:08;6.20;;;3.57;;
21611;SDS011;47005;52.292;13.452;2023-11-19T06:19:36;5.73;;;3.60;;
21611;SDS011;47005;52.292;13.452;2023-11-19T06:22:03;5.07;;;3.10;;
21611;SDS011;47005;52.292;13.452;2023-11-19T06:24:29;6.77;;;3.90;;
21611;SDS011;47005;52.292;13.452;2023-11-19T06:26:54;6.80;;;3.63;;
21611;SDS011;47005;52.292;13.452;2023-11-19T06:29:20;5.60;;;3.57;;
21611;SDS011;47005;52.292;13.452;2023-11-19T06:31:46;5.70;;;4.23;;
21611;SDS011;47005;52.292;13.452;2023-11-19T06:34:14;5.90;;;3.67;;
21611;SDS011;47005;52.292;13.452;2023-11-19T06:36:40;6.33;;;4.20;;
21611;SDS011;47005;52.292;13.452;2023-11-19T06:39:06;5.77;;;3.63;;
21611;SDS011;47005;52.292;13.452;2023-11-19T06:41:32;5.03;;;3.23;;
21611;SDS011;47005;52.292;13.452;2023-11-19T06:43:57;7.57;;;3.77;;
21611;SDS011;47005;52.292;13.452;2023-11-19T06:46:23;5.43;;;4.33;;
21611;SDS011;47005;52.292;13.452;2023-11-19T06:48:48;5.57;;;3.43;;
21611;SDS011;47005;52.292;13.452;2023-11-19T06:51:14;6.77;;;3.30;;
21611;SDS011;47005;52.292;13.452;2023-11-19T06:53:40;5.27;;;3.40;;
21611;SDS011;47005;52.292;13.452;2023-11-19T06:56:22;6.20;;;3.60;;
21611;SDS011;47005;52.292;13.452;2023-11-19T06:58:49;3.73;;;2.70;;
21611;SDS011;47005;52.292;13.452;2023-11-19T07:01:15;4.80;;;2.90;;
21611;SDS011;47005;52.292;13.452;2023-11-19T07:03:42;4.30;;;3.07;;
21611;SDS011;47005;52.292;13.452;2023-11-19T07:06:11;5.83;;;3.70;;
21611;SDS011;47005;52.292;13.452;2023-11-19T07:08:38;5.77;;;3.30;;
21611;SDS011;47005;52.292;13.452;2023-11-19T07:11:04;5.07;;;3.30;;
21611;SDS011;47005;52.292;13.452;2023-11-19T07:13:30;4.80;;;3.03;;
21611;SDS011;47005;52.292;13.452;2023-11-19T07:15:56;5.60;;;3.03;;
21611;SDS011;47005;52.292;13.452;2023-11-19T07:18:22;5.43;;;3.37;;
21611;SDS011;47005;52.292;13.452;2023-11-19T07:20:48;4.67;;;3.03;;
21611;SDS011;47005;52.292;13.452;2023-11-19T07:23:13;5.23;;;3.30;;
21611;SDS011;47005;52.292;13.452;2023-11-19T07:25:42;4.87;;;3.30;;
21611;SDS011;47005;52.292;13.452;2023-11-19T07:28:11;5.97;;;3.57;;
21611;SDS011;47005;52.292;13.452;2023-11-19T07:30:40;5.47;;;3.23;;
21611;SDS011;47005;52.292;13.452;2023-11-19T07:33:06;5.67;;;3.30;;
21611;SDS011;47005;52.292;13.452;2023-11-19T07:35:32;5.00;;;2.67;;
21611;SDS011;47005;52.292;13.452;2023-11-19T07:37:58;4.93;;;3.20;;
21611;SDS011;47005;52.292;13.452;2023-11-19T07:40:24;5.77;;;3.07;;
21611;SDS011;47005;52.292;13.452;2023-11-19T07:42:49;4.40;;;2.90;;
21611;SDS011;47005;52.292;13.452;2023-11-19T07:45:16;7.80;;;3.47;;
21611;SDS011;47005;52.292;13.452;2023-11-19T07:47:42;5.00;;;3.00;;
21611;SDS011;47005;52.292;13.452;2023-11-19T07:50:09;5.67;;;3.50;;
21611;SDS011;47005;52.292;13.452;2023-11-19T07:52:36;5.53;;;3.23;;
21611;SDS011;47005;52.292;13.452;2023-11-19T07:55:02;5.93;;;3.33;;
21611;SDS011;47005;52.292;13.452;2023-11-19T07:57:30;5.40;;;3.33;;
21611;SDS011;47005;52.292;13.452;2023-11-19T07:59:56;4.77;;;2.73;;
21611;SDS011;47005;52.292;13.452;2023-11-19T08:02:22;4.53;;;2.80;;
21611;SDS011;47005;52.292;13.452;2023-11-19T08:04:48;5.37;;;2.87;;
21611;SDS011;47005;52.292;13.452;2023-11-19T08:07:16;5.30;;;2.50;;
21611;SDS011;47005;52.292;13.452;2023-11-19T08:09:43;4.63;;;3.23;;
21611;SDS011;47005;52.292;13.452;2023-11-19T08:12:08;5.33;;;3.10;;
21611;SDS011;47005;52.292;13.452;2023-11-19T08:14:35;4.33;;;2.70;;
21611;SDS011;47005;52.292;13.452;2023-11-19T08:17:02;4.27;;;3.40;;
21611;SDS011;47005;52.292;13.452;2023-11-19T08:19:28;5.10;;;3.40;;
21611;SDS011;47005;52.292;13.452;2023-11-19T08:21:53;5.50;;;2.93;;
21611;SDS011;47005;52.292;13.452;2023-11-19T08:24:19;5.17;;;3.33;;
21611;SDS011;47005;52.292;13.452;2023-11-19T08:26:44;4.97;;;2.80;;
21611;SDS011;47005;52.292;13.452;2023-11-19T08:29:10;3.77;;;2.40;;
21611;SDS011;47005;52.292;13.452;2023-11-19T08:31:36;4.80;;;2.60;;
21611;SDS011;47005;52.292;13.452;2023-11-19T08:34:01;8.27;;;1.97;;
21611;SDS011;47005;52.292;13.452;2023-11-19T08:36:27;3.90;;;2.33;;
21611;SDS011;47005;52.292;13.452;2023-11-19T08:38:53;4.20;;;2.40;;
21611;SDS011;47005;52.292;13.452;2023-11-19T08:41:19;3.40;;;1.93;;
21611;SDS011;47005;52.292;13.452;2023-11-19T08:43:46;3.57;;;1.77;;
21611;SDS011;47005;52.292;13.452;2023-11-19T08:46:12;3.80;;;2.03;;
21611;SDS011;47005;52.292;13.452;2023-11-19T08:48:38;4.70;;;1.80;;
21611;SDS011;47005;52.292;13.452;2023-11-19T08:51:05;6.57;;;1.67;;
21611;SDS011;47005;52.292;13.452;2023-11-19T08:53:31;3.23;;;1.60;;
21611;SDS011;47005;52.292;13.452;2023-11-19T08:55:57;3.40;;;1.63;;
21611;SDS011;47005;52.292;13.452;2023-11-19T08:58:22;6.10;;;1.73;;
21611;SDS011;47005;52.292;13.452;2023-11-19T09:00:48;2.63;;;1.63;;
21611;SDS011;47005;52.292;13.452;2023-11-19T09:03:13;3.40;;;1.87;;
21611;SDS011;47005;52.292;13.452;2023-11-19T09:05:39;2.67;;;1.50;;
21611;SDS011;47005;52.292;13.452;2023-11-19T09:08:05;1.83;;;1.20;;
21611;SDS011;47005;52.292;13.452;2023-11-19T09:10:31;2.60;;;1.60;;
21611;SDS011;47005;52.292;13.452;2023-11-19T09:12:57;2.63;;;1.43;;
21611;SDS011;47005;52.292;13.452;2023-11-19T09:15:23;4.40;;;1.53;;
21611;SDS011;47005;52.292;13.452;2023-11-19T09:17:49;2.27;;;1.33;;
21611;SDS011;47005;52.292;13.452;2023-11-19T09:20:14;2.70;;;1.30;;
21611;SDS011;47005;52.292;13.452;2023-11-19T09:22:41;1.57;;;1.20;;
21611;SDS011;47005;52.292;13.452;2023-11-19T09:25:07;3.23;;;1.70;;
21611;SDS011;47005;52.292;13.452;2023-11-19T09:27:33;4.33;;;1.60;;
21611;SDS011;47005;52.292;13.452;2023-11-19T09:29:58;2.77;;;1.50;;
21611;SDS011;47005;52.292;13.452;2023-11-19T09:32:24;2.73;;;1.13;;
21611;SDS011;47005;52.292;13.452;2023-11-19T09:34:50;1.80;;;1.33;;
21611;SDS011;47005;52.292;13.452;2023-11-19T09:37:16;3.10;;;1.47;;
21611;SDS011;47005;52.292;13.452;2023-11-19T09:39:41;1.57;;;1.13;;
21611;SDS011;47005;52.292;13.452;2023-11-19T09:42:10;2.37;;;1.23;;
21611;SDS011;47005;52.292;13.452;2023-11-19T09:44:37;1.50;;;1.17;;
21611;SDS011;47005;52.292;13.452;2023-11-19T09:47:05;4.00;;;1.20;;
21611;SDS011;47005;52.292;13.452;2023-11-19T09:49:31;2.13;;;1.07;;
21611;SDS011;47005;52.292;13.452;2023-11-19T09:51:58;1.67;;;1.17;;
21611;SDS011;47005;52.292;13.452;2023-11-19T09:54:24;1.60;;;0.97;;
21611;SDS011;47005;52.292;13.452;2023-11-19T09:56:49;4.43;;;0.93;;
21611;SDS011;47005;52.292;13.452;2023-11-19T09:59:15;4.60;;;0.90;;
21611;SDS011;47005;52.292;13.452;2023-11-19T10:01:42;3.47;;;1.10;;
21611;SDS011;47005;52.292;13.452;2023-11-19T10:04:10;1.47;;;1.00;;
21611;SDS011;47005;52.292;13.452;2023-11-19T10:06:40;1.30;;;0.93;;
21611;SDS011;47005;52.292;13.452;2023-11-19T10:09:07;2.03;;;0.87;;
21611;SDS011;47005;52.292;13.452;2023-11-19T10:11:32;4.70;;;1.03;;
21611;SDS011;47005;52.292;13.452;2023-11-19T10:13:59;1.23;;;0.83;;
21611;SDS011;47005;52.292;13.452;2023-11-19T10:16:28;2.30;;;1.00;;
21611;SDS011;47005;52.292;13.452;2023-11-19T10:18:57;2.27;;;1.30;;
21611;SDS011;47005;52.292;13.452;2023-11-19T10:21:26;2.90;;;1.10;;
21611;SDS011;47005;52.292;13.452;2023-11-19T10:23:56;4.97;;;1.30;;
21611;SDS011;47005;52.292;13.452;2023-11-19T10:26:24;4.10;;;1.07;;
21611;SDS011;47005;52.292;13.452;2023-11-19T10:28:50;2.90;;;1.10;;
21611;SDS011;47005;52.292;13.452;2023-11-19T10:31:16;1.67;;;0.87;;
21611;SDS011;47005;52.292;13.452;2023-11-19T10:33:43;3.03;;;1.10;;
21611;SDS011;47005;52.292;13.452;2023-11-19T10:36:13;2.83;;;1.23;;
21611;SDS011;47005;52.292;13.452;2023-11-19T10:38:39;4.43;;;1.37;;
21611;SDS011;47005;52.292;13.452;2023-11-19T10:41:05;3.87;;;1.40;;
21611;SDS011;47005;52.292;13.452;2023-11-19T10:43:41;4.20;;;0.97;;
21611;SDS011;47005;52.292;13.452;2023-11-19T10:46:10;3.67;;;1.23;;
21611;SDS011;47005;52.292;13.452;2023-11-19T10:48:38;2.60;;;1.03;;
21611;SDS011;47005;52.292;13.452;2023-11-19T10:51:04;8.03;;;1.60;;
21611;SDS011;47005;52.292;13.452;2023-11-19T10:53:35;2.40;;;0.83;;
21611;SDS011;47005;52.292;13.452;2023-11-19T10:56:04;5.40;;;1.17;;
21611;SDS011;47005;52.292;13.452;2023-11-19T10:58:33;4.70;;;1.33;;
21611;SDS011;47005;52.292;13.452;2023-11-19T11:01:03;3.73;;;1.03;;
21611;SDS011;47005;52.292;13.452;2023-11-19T11:03:40;6.73;;;1.63;;
21611;SDS011;47005;52.292;13.452;2023-11-19T11:06:06;1.93;;;0.97;;
21611;SDS011;47005;52.292;13.452;2023-11-19T11:08:34;9.07;;;1.73;;
21611;SDS011;47005;52.292;13.452;2023-11-19T11:11:02;7.43;;;1.57;;
21611;SDS011;47005;52.292;13.452;2023-11-19T11:13:29;4.93;;;1.60;;
21611;SDS011;47005;52.292;13.452;2023-11-19T11:15:57;6.47;;;1.50;;
21611;SDS011;47005;52.292;13.452;2023-11-19T11:18:23;7.40;;;2.20;;
21611;SDS011;47005;52.292;13.452;2023-11-19T11:29:26;10.23;;;1.90;;
21611;SDS011;47005;52.292;13.452;2023-11-19T11:37:19;5.77;;;1.73;;
21611;SDS011;47005;52.292;13.452;2023-11-19T11:39:53;6.40;;;2.03;;
21611;SDS011;47005;52.292;13.452;2023-11-19T11:44:58;5.47;;;1.57;;
21611;SDS011;47005;52.292;13.452;2023-11-19T11:50:13;6.23;;;2.20;;
21611;SDS011;47005;52.292;13.452;2023-11-19T11:55:27;8.57;;;1.87;;
21611;SDS011;47005;52.292;13.452;2023-11-19T11:57:59;8.23;;;2.20;;
21611;SDS011;47005;52.292;13.452;2023-11-19T12:00:32;11.30;;;2.10;;
21611;SDS011;47005;52.292;13.452;2023-11-19T12:03:02;7.60;;;1.97;;
21611;SDS011;47005;52.292;13.452;2023-11-19T12:05:30;9.73;;;2.30;;
21611;SDS011;47005;52.292;13.452;2023-11-19T12:10:31;8.97;;;1.97;;
21611;SDS011;47005;52.292;13.452;2023-11-19T12:13:12;11.03;;;2.97;;
21611;SDS011;47005;52.292;13.452;2023-11-19T12:18:28;6.50;;;2.20;;
21611;SDS011;47005;52.292;13.452;2023-11-19T12:20:55;9.90;;;1.90;;
21611;SDS011;47005;52.292;13.452;2023-11-19T12:23:22;6.47;;;2.00;;
21611;SDS011;47005;52.292;13.452;2023-11-19T12:25:48;7.23;;;1.53;;
21611;SDS011;47005;52.292;13.452;2023-11-19T12:28:14;7.43;;;2.43;;
21611;SDS011;47005;52.292;13.452;2023-11-19T12:30:42;16.00;;;2.93;;
21611;SDS011;47005;52.292;13.452;2023-11-19T12:33:09;6.47;;;1.83;;
21611;SDS011;47005;52.292;13.452;2023-11-19T12:35:42;11.80;;;2.50;;
21611;SDS011;47005;52.292;13.452;2023-11-19T12:38:41;9.27;;;2.63;;
21611;SDS011;47005;52.292;13.452;2023-11-19T12:41:06;6.43;;;2.47;;
21611;SDS011;47005;52.292;13.452;2023-11-19T12:43:33;9.50;;;2.33;;
21611;SDS011;47005;52.292;13.452;2023-11-19T12:45:59;9.60;;;2.87;;
21611;SDS011;47005;52.292;13.452;2023-11-19T12:48:25;16.83;;;3.27;;
21611;SDS011;47005;52.292;13.452;2023-11-19T12:53:21;13.57;;;2.87;;
21611;SDS011;47005;52.292;13.452;2023-11-19T12:55:48;12.27;;;3.10;;
21611;SDS011;47005;52.292;13.452;2023-11-19T13:01:07;11.60;;;2.97;;
21611;SDS011;47005;52.292;13.452;2023-11-19T13:03:35;14.13;;;3.03;;
21611;SDS011;47005;52.292;13.452;2023-11-19T13:06:06;14.07;;;3.27;;
21611;SDS011;47005;52.292;13.452;2023-11-19T13:11:06;13.43;;;3.30;;
21611;SDS011;47005;52.292;13.452;2023-11-19T13:16:22;11.97;;;2.43;;
21611;SDS011;47005;52.292;13.452;2023-11-19T13:18:48;13.50;;;3.03;;
21611;SDS011;47005;52.292;13.452;2023-11-19T13:21:14;15.00;;;3.20;;
21611;SDS011;47005;52.292;13.452;2023-11-19T13:23:40;8.80;;;3.23;;
21611;SDS011;47005;52.292;13.452;2023-11-19T13:26:05;17.80;;;3.27;;
21611;SDS011;47005;52.292;13.452;2023-11-19T13:28:31;11.67;;;3.70;;
21611;SDS011;47005;52.292;13.452;2023-11-19T13:30:57;10.90;;;3.57;;
21611;SDS011;47005;52.292;13.452;2023-11-19T13:33:23;15.23;;;4.40;;
21611;SDS011;47005;52.292;13.452;2023-11-19T13:35:48;8.57;;;3.60;;
21611;SDS011;47005;52.292;13.452;2023-11-19T13:38:14;13.47;;;3.30;;
21611;SDS011;47005;52.292;13.452;2023-11-19T13:40:40;14.83;;;3.30;;
21611;SDS011;47005;52.292;13.452;2023-11-19T13:43:05;11.33;;;3.30;;
21611;SDS011;47005;52.292;13.452;2023-11-19T13:45:32;11.43;;;3.80;;
21611;SDS011;47005;52.292;13.452;2023-11-19T13:47:58;16.80;;;3.23;;
21611;SDS011;47005;52.292;13.452;2023-11-19T13:50:23;15.23;;;3.40;;
21611;SDS011;47005;52.292;13.452;2023-11-19T13:52:49;20.13;;;3.57;;
21611;SDS011;47005;52.292;13.452;2023-11-19T13:55:15;13.53;;;4.00;;
21611;SDS011;47005;52.292;13.452;2023-11-19T13:57:41;13.07;;;3.27;;
21611;SDS011;47005;52.292;13.452;2023-11-19T14:00:08;10.77;;;3.40;;
21611;SDS011;47005;52.292;13.452;2023-11-19T14:02:40;14.47;;;3.60;;
21611;SDS011;47005;52.292;13.452;2023-11-19T14:05:07;11.93;;;3.33;;
21611;SDS011;47005;52.292;13.452;2023-11-19T14:07:34;14.40;;;2.90;;
21611;SDS011;47005;52.292;13.452;2023-11-19T14:09:59;19.07;;;3.57;;
21611;SDS011;47005;52.292;13.452;2023-11-19T14:12:25;18.63;;;3.70;;
21611;SDS011;47005;52.292;13.452;2023-11-19T14:14:51;11.50;;;3.23;;
21611;SDS011;47005;52.292;13.452;2023-11-19T14:17:17;19.70;;;3.63;;
21611;SDS011;47005;52.292;13.452;2023-11-19T14:19:43;12.60;;;3.20;;
21611;SDS011;47005;52.292;13.452;2023-11-19T14:22:09;12.37;;;3.43;;
21611;SDS011;47005;52.292;13.452;2023-11-19T14:24:35;21.17;;;3.60;;
21611;SDS011;47005;52.292;13.452;2023-11-19T14:27:01;17.67;;;3.43;;
21611;SDS011;47005;52.292;13.452;2023-11-19T14:29:27;12.60;;;3.30;;
21611;SDS011;47005;52.292;13.452;2023-11-19T14:31:56;13.23;;;3.37;;
21611;SDS011;47005;52.292;13.452;2023-11-19T14:34:22;20.03;;;4.80;;
21611;SDS011;47005;52.292;13.452;2023-11-19T14:36:48;19.60;;;3.93;;
21611;SDS011;47005;52.292;13.452;2023-11-19T14:39:14;13.43;;;3.47;;
21611;SDS011;47005;52.292;13.452;2023-11-19T14:41:40;15.17;;;2.97;;
21611;SDS011;47005;52.292;13.452;2023-11-19T14:44:05;23.10;;;4.43;;
21611;SDS011;47005;52.292;13.452;2023-11-19T14:46:31;15.37;;;3.77;;
21611;SDS011;47005;52.292;13.452;2023-11-19T14:48:57;14.03;;;4.13;;
21611;SDS011;47005;52.292;13.452;2023-11-19T14:51:22;14.70;;;4.67;;
21611;SDS011;47005;52.292;13.452;2023-11-19T14:53:48;12.27;;;3.90;;
21611;SDS011;47005;52.292;13.452;2023-11-19T14:56:13;9.80;;;3.80;;
21611;SDS011;47005;52.292;13.452;2023-11-19T14:58:39;20.53;;;3.17;;
21611;SDS011;47005;52.292;13.452;2023-11-19T15:01:06;14.70;;;3.63;;
21611;SDS011;47005;52.292;13.452;2023-11-19T15:03:32;14.50;;;3.53;;
21611;SDS011;47005;52.292;13.452;2023-11-19T15:05:58;16.97;;;4.87;;
21611;SDS011;47005;52.292;13.452;2023-11-19T15:08:24;10.03;;;2.93;;